createdAt,value
2022-07-28T00:04:00.334Z,54.8
2022-07-28T00:19:09.155Z,54.6
2022-07-28T00:34:18.542Z,54.9
2022-07-28T00:49:27.663Z,55.2
2022-07-28T01:04:36.658Z,55.4
2022-07-28T01:19:45.722Z,55.6
2022-07-28T01:34:54.587Z,55.9
2022-07-28T01:50:03.671Z,56
2022-07-28T02:05:15.660Z,56.7
2022-07-28T02:20:31.579Z,56
2022-07-28T02:35:41.623Z,56.7
2022-07-28T02:50:50.972Z,56.8
2022-07-28T03:06:00.229Z,57
2022-07-28T03:21:09.735Z,57.1
2022-07-28T03:36:19.135Z,57.2
2022-07-28T03:51:28.507Z,57.3
2022-07-28T04:06:41.110Z,57.4
2022-07-28T04:21:50.459Z,57.5
2022-07-28T04:36:59.720Z,57.5
2022-07-28T04:52:09.347Z,57.5
2022-07-28T05:07:18.945Z,57.5
2022-07-28T05:22:28.681Z,57.5
2022-07-28T05:37:38.198Z,57.4
2022-07-28T05:52:47.850Z,57.4
2022-07-28T06:07:57.734Z,57.6
2022-07-28T06:23:07.005Z,57.5
2022-07-28T06:38:16.547Z,57.5
2022-07-28T06:53:34.912Z,57.3
2022-07-28T07:08:44.880Z,57.1
2022-07-28T07:23:54.627Z,56.5
2022-07-28T07:39:03.711Z,56.7
2022-07-28T07:54:15.854Z,56.5
2022-07-28T08:09:26.064Z,56.2
2022-07-28T08:24:36.108Z,56
2022-07-28T08:39:45.800Z,55.8
2022-07-28T08:54:54.851Z,55.6
2022-07-28T09:10:04.316Z,55.4
2022-07-28T09:25:13.660Z,55.1
2022-07-28T09:40:23.321Z,54.8
2022-07-28T09:55:33.430Z,54.5
2022-07-28T10:10:43.456Z,54.2
2022-07-28T10:25:55.415Z,54
2022-07-28T10:41:06.291Z,53.6
2022-07-28T10:56:16.136Z,53.3
2022-07-28T11:11:28.812Z,52.9
2022-07-28T11:26:38.537Z,52.6
2022-07-28T11:41:49.539Z,52.2
2022-07-28T11:56:59.360Z,51.9
2022-07-28T12:12:09.068Z,51.1
2022-07-28T12:27:20.255Z,45.3
2022-07-28T12:42:30.573Z,47.5
2022-07-28T12:57:51.992Z,47.1
2022-07-28T13:13:01.777Z,47.2
2022-07-28T13:28:11.389Z,47.2
2022-07-28T13:43:21.680Z,45.7
2022-07-28T13:58:32.358Z,45.6
2022-07-28T14:13:43.214Z,44.5
2022-07-28T14:28:53.157Z,43.9
2022-07-28T14:44:02.503Z,44.4
2022-07-28T14:59:12.380Z,44.3
2022-07-28T15:14:22.693Z,44.3
2022-07-28T15:29:35.997Z,44.1
2022-07-28T15:44:45.009Z,44.3
2022-07-28T15:59:54.116Z,44.7
2022-07-28T16:15:02.773Z,45.2
2022-07-28T16:30:11.491Z,45.8
2022-07-28T16:45:20.237Z,46.2
2022-07-28T17:00:29.421Z,46.5
2022-07-28T17:15:40.248Z,46.5
2022-07-28T17:30:49.933Z,46.7
2022-07-28T17:46:10.281Z,46.7
2022-07-28T18:01:20.301Z,46.9
2022-07-28T18:16:29.309Z,47
2022-07-28T18:31:47.573Z,47.1
2022-07-28T18:46:57.119Z,47.3
2022-07-28T19:02:07.294Z,47.4
2022-07-28T19:17:16.591Z,47.6
2022-07-28T19:32:27.097Z,47.8
2022-07-28T19:47:37.582Z,48
2022-07-28T20:02:47.423Z,48.1
2022-07-28T20:17:56.267Z,48.3
2022-07-28T20:33:05.609Z,48.4
2022-07-28T20:48:16.055Z,48.6
2022-07-28T21:03:25.265Z,48.7
2022-07-28T21:18:34.816Z,48.8
2022-07-28T21:33:44.116Z,49.3
2022-07-28T21:48:53.555Z,49.1
2022-07-28T22:04:03.030Z,49.2
2022-07-28T22:19:12.232Z,49.2
2022-07-28T22:34:21.233Z,49.3
2022-07-28T22:49:30.517Z,49.2
2022-07-28T23:04:44.150Z,49.2
2022-07-28T23:19:55.248Z,49.3
2022-07-28T23:35:06.428Z,49.3
2022-07-28T23:50:15.919Z,49.4
